createdAt,value
2017-01-01T00:00:37.227Z,1014.63
2017-01-01T00:01:37.227Z,1014.62
2017-01-01T00:02:36.947Z,1014.63
2017-01-01T00:03:37.114Z,1014.56
2017-01-01T00:04:37.121Z,1014.51
2017-01-01T00:05:37.107Z,1014.55
2017-01-01T00:06:37.178Z,1014.51
2017-01-01T00:07:37.225Z,1014.52
2017-01-01T00:08:37.057Z,1014.48
2017-01-01T00:09:37.098Z,1014.48
2017-01-01T00:10:37.273Z,1014.47
2017-01-01T00:11:37.119Z,1014.47
2017-01-01T00:12:37.086Z,1014.48
2017-01-01T00:13:37.271Z,1014.46
2017-01-01T00:14:37.238Z,1014.47
2017-01-01T00:15:37.076Z,1014.46
2017-01-01T00:16:37.110Z,1014.42
2017-01-01T00:17:37.535Z,1014.42
2017-01-01T00:18:37.386Z,1014.41
2017-01-01T00:19:37.229Z,1014.42
2017-01-01T00:20:37.291Z,1014.39
2017-01-01T00:21:37.319Z,1014.37
2017-01-01T00:22:37.173Z,1014.38
2017-01-01T00:23:37.087Z,1014.36
2017-01-01T00:24:37.180Z,1014.32
2017-01-01T00:25:37.299Z,1014.37
2017-01-01T00:26:37.219Z,1014.34
2017-01-01T00:27:37.284Z,1014.33
2017-01-01T00:28:37.249Z,1014.29
2017-01-01T00:29:37.323Z,1014.28
2017-01-01T00:30:37.395Z,1014.27
2017-01-01T00:31:37.223Z,1014.27
2017-01-01T00:32:37.227Z,1014.26
2017-01-01T00:33:37.382Z,1014.23
2017-01-01T00:34:37.328Z,1014.22
2017-01-01T00:35:37.366Z,1014.24
2017-01-01T00:36:37.410Z,1014.23
2017-01-01T00:37:37.353Z,1014.25
2017-01-01T00:38:37.564Z,1014.24
2017-01-01T00:39:37.539Z,1014.21
2017-01-01T00:40:37.394Z,1014.25
2017-01-01T00:41:37.322Z,1014.24
2017-01-01T00:42:37.332Z,1014.21
2017-01-01T00:43:37.688Z,1014.23
2017-01-01T00:44:37.515Z,1014.23
2017-01-01T00:45:37.435Z,1014.24
2017-01-01T00:46:37.782Z,1014.27
2017-01-01T00:47:37.527Z,1014.27
2017-01-01T00:48:37.631Z,1014.24
2017-01-01T00:49:37.762Z,1014.21
2017-01-01T00:50:37.580Z,1014.19
2017-01-01T00:51:37.595Z,1014.18
2017-01-01T00:52:37.532Z,1014.14
2017-01-01T00:53:37.507Z,1014.16
2017-01-01T00:54:37.535Z,1014.15
2017-01-01T00:55:37.556Z,1014.12
2017-01-01T00:56:38.121Z,1014.11
2017-01-01T00:57:37.548Z,1014.1
2017-01-01T00:58:37.645Z,1014.07
2017-01-01T00:59:37.598Z,1014.04
2017-01-01T01:00:37.766Z,1014.09
2017-01-01T01:01:37.590Z,1014.07
2017-01-01T01:02:37.795Z,1014.05
2017-01-01T01:03:37.811Z,1014.04
2017-01-01T01:04:37.591Z,1014.04
2017-01-01T01:05:37.654Z,1014.07
2017-01-01T01:06:37.665Z,1014.02
2017-01-01T01:07:37.635Z,1014.01
2017-01-01T01:08:37.777Z,1013.99
2017-01-01T01:09:37.637Z,1013.96
2017-01-01T01:10:37.944Z,1013.9
2017-01-01T01:11:37.792Z,1013.9
2017-01-01T01:12:37.839Z,1013.89
2017-01-01T01:13:37.720Z,1013.89
2017-01-01T01:14:37.824Z,1013.86
2017-01-01T01:15:37.738Z,1013.88
2017-01-01T01:16:37.744Z,1013.82
2017-01-01T01:17:37.795Z,1013.84
2017-01-01T01:18:37.679Z,1013.82
2017-01-01T01:19:37.973Z,1013.79
2017-01-01T01:20:37.843Z,1013.74
2017-01-01T01:21:37.717Z,1013.74
2017-01-01T01:22:38.425Z,1013.78
2017-01-01T01:23:37.829Z,1013.8
2017-01-01T01:24:37.859Z,1013.86
2017-01-01T01:25:37.877Z,1013.81
2017-01-01T01:26:37.796Z,1013.84
2017-01-01T01:27:38.169Z,1013.8
2017-01-01T01:28:37.800Z,1013.78
2017-01-01T01:29:38.063Z,1013.76
2017-01-01T01:30:37.854Z,1013.78
2017-01-01T01:31:37.897Z,1013.8
2017-01-01T01:32:38.031Z,1013.74
2017-01-01T01:33:38.094Z,1013.77
2017-01-01T01:34:37.923Z,1013.74
2017-01-01T01:35:37.935Z,1013.71
2017-01-01T01:36:38.054Z,1013.69
2017-01-01T01:37:37.966Z,1013.74
2017-01-01T01:38:38.178Z,1013.7
2017-01-01T01:39:38.031Z,1013.68
2017-01-01T01:40:38.037Z,1013.66
2017-01-01T01:41:38.057Z,1013.66
2017-01-01T01:42:38.102Z,1013.61
2017-01-01T01:43:38.252Z,1013.58
2017-01-01T01:44:38.107Z,1013.55
2017-01-01T01:45:37.999Z,1013.55
2017-01-01T01:46:38.332Z,1013.59
2017-01-01T01:47:38.045Z,1013.59
2017-01-01T01:48:38.016Z,1013.59
2017-01-01T01:49:38.182Z,1013.58
2017-01-01T01:50:38.027Z,1013.56
2017-01-01T01:51:38.112Z,1013.49
2017-01-01T01:52:38.108Z,1013.5
2017-01-01T01:53:38.169Z,1013.49
2017-01-01T01:54:38.189Z,1013.5
2017-01-01T01:55:38.271Z,1013.48
2017-01-01T01:56:38.198Z,1013.48
2017-01-01T01:57:38.239Z,1013.52
2017-01-01T01:58:38.368Z,1013.49
2017-01-01T01:59:38.102Z,1013.46
2017-01-01T02:00:38.243Z,1013.47
2017-01-01T02:01:38.232Z,1013.44
2017-01-01T02:02:38.437Z,1013.45
2017-01-01T02:03:38.322Z,1013.43
2017-01-01T02:04:38.383Z,1013.4
2017-01-01T02:05:38.352Z,1013.39
2017-01-01T02:06:38.195Z,1013.34
2017-01-01T02:07:38.385Z,1013.33
2017-01-01T02:08:38.320Z,1013.31
2017-01-01T02:09:38.338Z,1013.32
2017-01-01T02:10:38.269Z,1013.32
2017-01-01T02:11:38.191Z,1013.26
2017-01-01T02:12:38.364Z,1013.24
2017-01-01T02:13:38.250Z,1013.21
2017-01-01T02:14:38.371Z,1013.17
2017-01-01T02:15:38.419Z,1013.21
2017-01-01T02:16:38.366Z,1013.17
2017-01-01T02:17:38.737Z,1013.18
2017-01-01T02:18:38.461Z,1013.13
2017-01-01T02:19:38.454Z,1013.19
2017-01-01T02:20:38.378Z,1013.16
2017-01-01T02:21:38.302Z,1013.16
2017-01-01T02:22:38.691Z,1013.13
2017-01-01T02:23:38.655Z,1013.08
2017-01-01T02:24:38.382Z,1013.11
2017-01-01T02:25:38.666Z,1013.05
2017-01-01T02:26:38.616Z,1013.15
2017-01-01T02:27:38.526Z,1013.09
2017-01-01T02:28:38.530Z,1013.1
2017-01-01T02:29:38.571Z,1013.1
2017-01-01T02:30:38.600Z,1013.08
2017-01-01T02:31:38.526Z,1013.06
2017-01-01T02:32:38.581Z,1013.12
2017-01-01T02:33:38.574Z,1013.13
2017-01-01T02:34:38.518Z,1013.1
2017-01-01T02:35:38.473Z,1013.03
2017-01-01T02:36:39.056Z,1013.09
2017-01-01T02:37:38.648Z,1013.04
2017-01-01T02:38:38.610Z,1013.07
2017-01-01T02:39:38.705Z,1012.99
2017-01-01T02:40:39.069Z,1012.99
2017-01-01T02:41:38.538Z,1012.98
2017-01-01T02:42:38.749Z,1013.01
2017-01-01T02:43:38.541Z,1012.99
2017-01-01T02:44:38.563Z,1012.95
2017-01-01T02:45:38.610Z,1012.94
2017-01-01T02:46:38.642Z,1012.89
2017-01-01T02:47:38.604Z,1012.91
2017-01-01T02:48:38.597Z,1012.95
2017-01-01T02:49:38.845Z,1012.93
2017-01-01T02:50:38.880Z,1012.87
2017-01-01T02:51:38.952Z,1012.87
2017-01-01T02:52:38.867Z,1012.82
2017-01-01T02:53:38.909Z,1012.82
2017-01-01T02:54:38.870Z,1012.85
2017-01-01T02:55:38.736Z,1012.85
2017-01-01T02:56:38.849Z,1012.85
2017-01-01T02:57:38.961Z,1012.86
2017-01-01T02:58:39.263Z,1012.85
2017-01-01T02:59:38.754Z,1012.83
2017-01-01T03:00:38.897Z,1012.84
2017-01-01T03:01:38.756Z,1012.8
2017-01-01T03:02:38.870Z,1012.77
2017-01-01T03:03:38.716Z,1012.73
2017-01-01T03:04:38.803Z,1012.7
2017-01-01T03:05:39.164Z,1012.72
2017-01-01T03:06:39.206Z,1012.73
2017-01-01T03:07:38.769Z,1012.68
2017-01-01T03:08:39.144Z,1012.7
2017-01-01T03:09:39.159Z,1012.66
2017-01-01T03:10:38.769Z,1012.65
2017-01-01T03:11:38.800Z,1012.63
2017-01-01T03:12:39.060Z,1012.65
2017-01-01T03:13:39.131Z,1012.66
2017-01-01T03:14:39.035Z,1012.71
2017-01-01T03:15:38.969Z,1012.7
2017-01-01T03:16:39.022Z,1012.74
2017-01-01T03:17:39.008Z,1012.71
2017-01-01T03:18:39.253Z,1012.7
2017-01-01T03:19:38.952Z,1012.65
2017-01-01T03:20:38.959Z,1012.71
2017-01-01T03:21:39.154Z,1012.71
2017-01-01T03:22:39.101Z,1012.64
2017-01-01T03:23:39.048Z,1012.65
2017-01-01T03:24:38.993Z,1012.68
2017-01-01T03:25:39.062Z,1012.67
2017-01-01T03:26:39.106Z,1012.67
2017-01-01T03:27:39.121Z,1012.59
2017-01-01T03:28:39.041Z,1012.58
2017-01-01T03:29:39.036Z,1012.57
2017-01-01T03:30:39.139Z,1012.54
2017-01-01T03:31:39.026Z,1012.48
2017-01-01T03:32:39.109Z,1012.42
2017-01-01T03:33:39.027Z,1012.48
2017-01-01T03:34:39.139Z,1012.5
2017-01-01T03:35:39.091Z,1012.48
2017-01-01T03:36:39.283Z,1012.51
2017-01-01T03:37:39.312Z,1012.47
2017-01-01T03:38:39.223Z,1012.49
2017-01-01T03:39:39.054Z,1012.5
2017-01-01T03:40:39.244Z,1012.52
2017-01-01T03:41:39.217Z,1012.51
2017-01-01T03:42:39.184Z,1012.46
2017-01-01T03:43:39.190Z,1012.41
2017-01-01T03:44:39.291Z,1012.39
2017-01-01T03:45:39.235Z,1012.4
2017-01-01T03:46:39.463Z,1012.4
2017-01-01T03:47:39.485Z,1012.38
2017-01-01T03:48:39.272Z,1012.38
2017-01-01T03:49:39.438Z,1012.35
2017-01-01T03:50:39.218Z,1012.38
2017-01-01T03:51:39.285Z,1012.39
2017-01-01T03:52:39.432Z,1012.43
2017-01-01T03:53:39.309Z,1012.39
2017-01-01T03:54:39.395Z,1012.39
2017-01-01T03:55:39.366Z,1012.38
2017-01-01T03:56:39.410Z,1012.33
2017-01-01T03:57:39.552Z,1012.28
2017-01-01T03:58:39.365Z,1012.35
2017-01-01T03:59:39.326Z,1012.31
2017-01-01T04:00:39.369Z,1012.23
2017-01-01T04:01:39.391Z,1012.19
2017-01-01T04:02:39.595Z,1012.17
2017-01-01T04:03:39.482Z,1012.17
2017-01-01T04:04:39.353Z,1012.2
2017-01-01T04:05:39.347Z,1012.16
2017-01-01T04:06:39.449Z,1012.14
2017-01-01T04:07:39.500Z,1012.13
2017-01-01T04:08:39.608Z,1012.17
2017-01-01T04:09:39.519Z,1012.17
2017-01-01T04:10:39.642Z,1012.08
2017-01-01T04:11:39.529Z,1012.03
2017-01-01T04:12:39.689Z,1012.04
2017-01-01T04:13:39.699Z,1011.96
2017-01-01T04:14:39.494Z,1012.03
2017-01-01T04:15:39.655Z,1012.06
2017-01-01T04:16:39.540Z,1012.07
2017-01-01T04:17:39.573Z,1011.99
2017-01-01T04:18:39.514Z,1012.01
2017-01-01T04:19:39.635Z,1012.03
2017-01-01T04:20:39.500Z,1012.07
2017-01-01T04:21:39.651Z,1012.08
2017-01-01T04:22:39.938Z,1012.04
2017-01-01T04:23:39.585Z,1012
2017-01-01T04:24:39.838Z,1012
2017-01-01T04:25:39.497Z,1012.03
2017-01-01T04:26:39.614Z,1012.01
2017-01-01T04:27:39.733Z,1012.04
2017-01-01T04:28:39.630Z,1012.01
2017-01-01T04:29:39.588Z,1011.98
2017-01-01T04:30:39.717Z,1011.95
2017-01-01T04:31:39.858Z,1011.94
2017-01-01T04:32:39.863Z,1011.96
2017-01-01T04:33:39.784Z,1011.95
2017-01-01T04:34:39.641Z,1011.92
2017-01-01T04:35:39.968Z,1011.97
2017-01-01T04:36:39.914Z,1011.97
2017-01-01T04:37:39.813Z,1011.98
2017-01-01T04:38:39.793Z,1011.95
2017-01-01T04:39:39.781Z,1011.94
2017-01-01T04:40:39.797Z,1011.94
2017-01-01T04:41:39.872Z,1011.93
2017-01-01T04:42:40.107Z,1011.92
2017-01-01T04:43:39.868Z,1011.89
2017-01-01T04:44:39.699Z,1011.96
2017-01-01T04:45:39.809Z,1011.97
2017-01-01T04:46:39.897Z,1011.99
2017-01-01T04:47:40.213Z,1012.04
2017-01-01T04:48:39.882Z,1012.04
2017-01-01T04:49:39.924Z,1012.08
2017-01-01T04:50:39.828Z,1012.04
2017-01-01T04:51:40.231Z,1012.03
2017-01-01T04:52:39.848Z,1012
2017-01-01T04:53:39.866Z,1011.95
2017-01-01T04:54:39.845Z,1011.89
2017-01-01T04:55:39.960Z,1011.91
2017-01-01T04:56:39.912Z,1011.92
2017-01-01T04:57:40.025Z,1011.88
2017-01-01T04:58:39.839Z,1011.86
2017-01-01T04:59:40.074Z,1011.78
2017-01-01T05:00:40.037Z,1011.77
2017-01-01T05:01:40.108Z,1011.71
2017-01-01T05:02:39.976Z,1011.66
2017-01-01T05:03:39.925Z,1011.6
2017-01-01T05:04:40.062Z,1011.61
2017-01-01T05:05:40.113Z,1011.61
2017-01-01T05:06:40.073Z,1011.58
2017-01-01T05:07:40.328Z,1011.6
2017-01-01T05:08:40.101Z,1011.57
2017-01-01T05:09:40.454Z,1011.56
2017-01-01T05:10:40.163Z,1011.54
2017-01-01T05:11:40.189Z,1011.5
2017-01-01T05:12:40.060Z,1011.54
2017-01-01T05:13:40.098Z,1011.53
2017-01-01T05:14:40.307Z,1011.58
2017-01-01T05:15:40.122Z,1011.55
2017-01-01T05:16:40.093Z,1011.53
2017-01-01T05:17:40.402Z,1011.58
2017-01-01T05:18:40.171Z,1011.63
2017-01-01T05:19:40.147Z,1011.64
2017-01-01T05:20:40.094Z,1011.55
2017-01-01T05:21:40.323Z,1011.5
2017-01-01T05:22:40.526Z,1011.54
2017-01-01T05:23:40.427Z,1011.61
2017-01-01T05:24:40.322Z,1011.63
2017-01-01T05:25:40.452Z,1011.61
2017-01-01T05:26:40.323Z,1011.6
2017-01-01T05:27:40.270Z,1011.6
2017-01-01T05:28:40.576Z,1011.63
2017-01-01T05:29:40.339Z,1011.64
2017-01-01T05:30:40.268Z,1011.64
2017-01-01T05:31:40.425Z,1011.59
2017-01-01T05:32:40.207Z,1011.58
2017-01-01T05:33:40.488Z,1011.5
2017-01-01T05:34:40.353Z,1011.52
2017-01-01T05:35:40.375Z,1011.48
2017-01-01T05:36:40.281Z,1011.46
2017-01-01T05:37:40.796Z,1011.44
2017-01-01T05:38:40.265Z,1011.39
2017-01-01T05:39:40.340Z,1011.34
2017-01-01T05:40:40.581Z,1011.33
2017-01-01T05:41:40.348Z,1011.3
2017-01-01T05:42:40.791Z,1011.28
2017-01-01T05:43:40.345Z,1011.25
2017-01-01T05:44:40.317Z,1011.27
2017-01-01T05:45:40.558Z,1011.22
2017-01-01T05:46:40.393Z,1011.2
2017-01-01T05:47:40.489Z,1011.18
2017-01-01T05:48:40.659Z,1011.15
2017-01-01T05:49:40.569Z,1011.11
2017-01-01T05:50:40.500Z,1011.07
2017-01-01T05:51:41.234Z,1011.08
2017-01-01T05:52:40.604Z,1011.12
2017-01-01T05:53:40.690Z,1011.11
2017-01-01T05:54:40.620Z,1011.18
2017-01-01T05:55:40.527Z,1011.21
2017-01-01T05:56:40.448Z,1011.28
2017-01-01T05:57:41.391Z,1011.23
2017-01-01T05:58:42.201Z,1011.2
2017-01-01T05:59:42.072Z,1011.21
2017-01-01T06:00:41.293Z,1011.2
2017-01-01T06:01:40.922Z,1011.3
2017-01-01T06:02:41.348Z,1011.3
2017-01-01T06:03:41.708Z,1011.32
2017-01-01T06:04:41.927Z,1011.37
2017-01-01T06:05:41.097Z,1011.29
2017-01-01T06:06:41.592Z,1011.28
2017-01-01T06:07:41.022Z,1011.25
2017-01-01T06:08:41.987Z,1011.23
2017-01-01T06:09:41.985Z,1011.26
2017-01-01T06:10:42.533Z,1011.26
2017-01-01T06:11:42.190Z,1011.23
2017-01-01T06:12:41.800Z,1011.18
2017-01-01T06:13:41.555Z,1011.1
2017-01-01T06:14:41.102Z,1011.08
2017-01-01T06:15:41.587Z,1011.14
2017-01-01T06:16:42.159Z,1011.1
2017-01-01T06:17:41.001Z,1011.09
2017-01-01T06:18:41.623Z,1011.08
2017-01-01T06:19:41.275Z,1011.07
2017-01-01T06:20:41.521Z,1011.04
2017-01-01T06:21:41.024Z,1011.01
2017-01-01T06:22:42.034Z,1011
2017-01-01T06:23:41.487Z,1010.98
2017-01-01T06:24:41.300Z,1011.01
2017-01-01T06:25:42.460Z,1011.01
2017-01-01T06:26:41.335Z,1010.95
2017-01-01T06:27:40.848Z,1010.91
2017-01-01T06:28:41.922Z,1010.9
2017-01-01T06:29:42.019Z,1010.89
2017-01-01T06:30:41.586Z,1010.82
2017-01-01T06:31:42.210Z,1010.75
2017-01-01T06:32:42.344Z,1010.8
2017-01-01T06:33:42.169Z,1010.76
2017-01-01T06:34:41.350Z,1010.87
2017-01-01T06:35:41.967Z,1010.84
2017-01-01T06:36:43.702Z,1010.83
2017-01-01T06:37:41.808Z,1010.83
2017-01-01T06:38:41.983Z,1010.85
2017-01-01T06:39:41.893Z,1010.78
2017-01-01T06:40:43.164Z,1010.76
2017-01-01T06:41:42.292Z,1010.75
2017-01-01T06:42:42.128Z,1010.75
2017-01-01T06:44:40.846Z,1010.7
2017-01-01T06:45:42.165Z,1010.7
2017-01-01T06:46:41.611Z,1010.64
2017-01-01T06:47:42.131Z,1010.63
2017-01-01T06:48:41.135Z,1010.62
2017-01-01T06:49:42.236Z,1010.61
2017-01-01T06:50:41.689Z,1010.61
2017-01-01T06:51:41.858Z,1010.57
2017-01-01T06:52:41.655Z,1010.56
2017-01-01T06:53:41.527Z,1010.53
2017-01-01T06:54:41.630Z,1010.5
2017-01-01T06:55:41.533Z,1010.55
2017-01-01T06:56:42.439Z,1010.55
2017-01-01T06:57:43.055Z,1010.57
2017-01-01T06:58:41.730Z,1010.53
2017-01-01T06:59:41.474Z,1010.56
2017-01-01T07:00:41.930Z,1010.57
2017-01-01T07:01:43.050Z,1010.57
2017-01-01T07:02:42.088Z,1010.61
2017-01-01T07:03:41.402Z,1010.64
2017-01-01T07:04:41.716Z,1010.68
2017-01-01T07:05:42.515Z,1010.69
2017-01-01T07:06:43.055Z,1010.68
2017-01-01T07:07:41.556Z,1010.65
2017-01-01T07:08:42.409Z,1010.66
2017-01-01T07:09:42.174Z,1010.66
2017-01-01T07:10:42.131Z,1010.62
2017-01-01T07:11:41.936Z,1010.63
2017-01-01T07:12:41.988Z,1010.62
2017-01-01T07:13:41.890Z,1010.59
2017-01-01T07:14:41.361Z,1010.61
2017-01-01T07:15:42.160Z,1010.55
2017-01-01T07:17:42.291Z,1010.55
2017-01-01T07:18:42.507Z,1010.54
2017-01-01T07:19:42.432Z,1010.54
2017-01-01T07:20:41.901Z,1010.56
2017-01-01T07:21:44.015Z,1010.59
2017-01-01T07:22:42.006Z,1010.55
2017-01-01T07:23:42.100Z,1010.57
2017-01-01T07:24:42.030Z,1010.56
2017-01-01T07:25:41.638Z,1010.54
2017-01-01T07:26:42.141Z,1010.55
2017-01-01T07:27:41.556Z,1010.52
2017-01-01T07:28:41.503Z,1010.51
2017-01-01T07:29:42.191Z,1010.47
2017-01-01T07:30:42.978Z,1010.46
2017-01-01T07:31:41.885Z,1010.46
2017-01-01T07:32:41.483Z,1010.47
2017-01-01T07:33:41.966Z,1010.46
2017-01-01T07:34:41.703Z,1010.48
2017-01-01T07:35:41.631Z,1010.42
2017-01-01T07:36:42.129Z,1010.4
2017-01-01T07:37:41.620Z,1010.43
2017-01-01T07:38:41.455Z,1010.4
2017-01-01T07:39:42.020Z,1010.41
2017-01-01T07:40:41.786Z,1010.4
2017-01-01T07:41:41.617Z,1010.38
2017-01-01T07:42:41.908Z,1010.37
2017-01-01T07:43:41.742Z,1010.38
2017-01-01T07:44:42.048Z,1010.37
2017-01-01T07:45:41.501Z,1010.37
2017-01-01T07:46:41.788Z,1010.41
2017-01-01T07:47:41.742Z,1010.4
2017-01-01T07:48:41.566Z,1010.41
2017-01-01T07:49:41.532Z,1010.4
2017-01-01T07:50:41.559Z,1010.36
2017-01-01T07:51:41.719Z,1010.38
2017-01-01T07:52:41.778Z,1010.39
2017-01-01T07:53:41.607Z,1010.38
2017-01-01T07:54:41.693Z,1010.34
2017-01-01T07:55:41.609Z,1010.33
2017-01-01T07:56:41.774Z,1010.3
2017-01-01T07:57:41.752Z,1010.31
2017-01-01T07:58:41.837Z,1010.26
2017-01-01T07:59:41.973Z,1010.27
2017-01-01T08:00:41.801Z,1010.23
2017-01-01T08:01:41.788Z,1010.24
2017-01-01T08:02:41.972Z,1010.25
2017-01-01T08:03:41.888Z,1010.23
2017-01-01T08:04:41.745Z,1010.28
2017-01-01T08:05:41.735Z,1010.27
2017-01-01T08:06:41.826Z,1010.23
2017-01-01T08:07:41.865Z,1010.25
2017-01-01T08:08:41.764Z,1010.24
2017-01-01T08:09:41.816Z,1010.3
2017-01-01T08:10:41.832Z,1010.26
2017-01-01T08:11:41.769Z,1010.25
2017-01-01T08:12:41.891Z,1010.22
2017-01-01T08:13:41.898Z,1010.23
2017-01-01T08:14:41.863Z,1010.31
2017-01-01T08:15:41.802Z,1010.32
2017-01-01T08:16:41.815Z,1010.32
2017-01-01T08:17:41.886Z,1010.27
2017-01-01T08:18:42.001Z,1010.24
2017-01-01T08:19:41.956Z,1010.22
2017-01-01T08:20:42.243Z,1010.24
2017-01-01T08:21:41.941Z,1010.18
2017-01-01T08:22:42.019Z,1010.16
2017-01-01T08:23:41.916Z,1010.24
2017-01-01T08:24:42.109Z,1010.17
2017-01-01T08:25:41.968Z,1010.19
2017-01-01T08:26:42.044Z,1010.21
2017-01-01T08:27:42.060Z,1010.25
2017-01-01T08:28:41.968Z,1010.25
2017-01-01T08:29:42.149Z,1010.24
2017-01-01T08:30:42.022Z,1010.26
2017-01-01T08:31:42.318Z,1010.24
2017-01-01T08:32:42.050Z,1010.22
2017-01-01T08:33:42.146Z,1010.18
2017-01-01T08:34:42.011Z,1010.22
2017-01-01T08:35:42.104Z,1010.18
2017-01-01T08:36:42.042Z,1010.21
2017-01-01T08:37:42.056Z,1010.22
2017-01-01T08:38:42.142Z,1010.2
2017-01-01T08:39:42.320Z,1010.18
2017-01-01T08:40:42.158Z,1010.14
2017-01-01T08:41:42.202Z,1010.13
2017-01-01T08:42:42.125Z,1010.12
2017-01-01T08:43:42.075Z,1010.16
2017-01-01T08:44:42.283Z,1010.16
2017-01-01T08:45:42.511Z,1010.11
2017-01-01T08:46:42.141Z,1010.12
2017-01-01T08:47:42.097Z,1010.11
2017-01-01T08:48:42.226Z,1010.11
2017-01-01T08:49:42.130Z,1010.14
2017-01-01T08:50:42.429Z,1010.11
2017-01-01T08:51:42.388Z,1010.06
2017-01-01T08:52:42.677Z,1010.07
2017-01-01T08:53:42.323Z,1010.09
2017-01-01T08:54:42.553Z,1010.07
2017-01-01T08:55:42.385Z,1010.04
2017-01-01T08:56:42.449Z,1010.03
2017-01-01T08:57:42.414Z,1010.04
2017-01-01T08:58:42.291Z,1010.07
2017-01-01T08:59:42.306Z,1010.09
2017-01-01T09:00:42.536Z,1010.07
2017-01-01T09:01:42.402Z,1010.11
2017-01-01T09:02:42.321Z,1010.07
2017-01-01T09:03:42.368Z,1010.1
2017-01-01T09:04:42.905Z,1010.09
2017-01-01T09:05:42.576Z,1010.11
2017-01-01T09:06:42.599Z,1010.12
2017-01-01T09:07:42.692Z,1010.15
2017-01-01T09:08:42.330Z,1010.07
2017-01-01T09:09:42.814Z,1010.11
2017-01-01T09:10:42.455Z,1010.07
2017-01-01T09:11:42.572Z,1010.06
2017-01-01T09:12:42.495Z,1010.03
2017-01-01T09:13:42.380Z,1010.05
2017-01-01T09:14:42.420Z,1010.01
2017-01-01T09:15:42.468Z,1009.99
2017-01-01T09:16:42.619Z,1009.94
2017-01-01T09:17:42.622Z,1009.95
2017-01-01T09:18:42.527Z,1009.98
2017-01-01T09:19:42.544Z,1009.94
2017-01-01T09:20:42.670Z,1009.9
2017-01-01T09:21:42.713Z,1009.88
2017-01-01T09:22:42.645Z,1009.89
2017-01-01T09:23:42.910Z,1009.92
2017-01-01T09:24:42.490Z,1009.91
2017-01-01T09:25:42.602Z,1009.92
2017-01-01T09:26:42.555Z,1009.9
2017-01-01T09:27:42.752Z,1009.9
2017-01-01T09:28:42.638Z,1009.83
2017-01-01T09:29:42.724Z,1009.85
2017-01-01T09:30:42.605Z,1009.82
2017-01-01T09:31:42.703Z,1009.79
2017-01-01T09:32:42.668Z,1009.79
2017-01-01T09:33:42.688Z,1009.79
2017-01-01T09:34:42.586Z,1009.73
2017-01-01T09:35:43.313Z,1009.74
2017-01-01T09:36:42.689Z,1009.78
2017-01-01T09:37:42.894Z,1009.83
2017-01-01T09:38:42.658Z,1009.8
2017-01-01T09:39:42.607Z,1009.76
2017-01-01T09:40:43.246Z,1009.77
2017-01-01T09:41:42.723Z,1009.76
2017-01-01T09:42:42.727Z,1009.77
2017-01-01T09:43:42.741Z,1009.78
2017-01-01T09:44:42.709Z,1009.76
2017-01-01T09:45:42.713Z,1009.7
2017-01-01T09:46:42.865Z,1009.69
2017-01-01T09:47:42.954Z,1009.73
2017-01-01T09:48:42.903Z,1009.7
2017-01-01T09:49:42.817Z,1009.67
2017-01-01T09:50:42.886Z,1009.69
2017-01-01T09:51:42.865Z,1009.62
2017-01-01T09:52:42.840Z,1009.61
2017-01-01T09:53:42.894Z,1009.58
2017-01-01T09:54:43.009Z,1009.55
2017-01-01T09:55:42.996Z,1009.53
2017-01-01T09:56:43.067Z,1009.51
2017-01-01T09:57:42.940Z,1009.45
2017-01-01T09:58:43.108Z,1009.42
2017-01-01T09:59:42.973Z,1009.45
2017-01-01T10:00:43.210Z,1009.39
2017-01-01T10:01:43.286Z,1009.38
2017-01-01T10:02:42.919Z,1009.36
2017-01-01T10:03:43.364Z,1009.38
2017-01-01T10:04:43.030Z,1009.33
2017-01-01T10:05:43.164Z,1009.33
2017-01-01T10:06:42.955Z,1009.3
2017-01-01T10:07:43.460Z,1009.37
2017-01-01T10:08:43.445Z,1009.35
2017-01-01T10:09:44.016Z,1009.29
2017-01-01T10:10:43.009Z,1009.27
2017-01-01T10:11:43.433Z,1009.28
2017-01-01T10:12:43.204Z,1009.29
2017-01-01T10:13:43.089Z,1009.29
2017-01-01T10:14:43.193Z,1009.24
2017-01-01T10:15:43.338Z,1009.24
2017-01-01T10:16:43.293Z,1009.26
2017-01-01T10:17:43.317Z,1009.23
2017-01-01T10:18:43.258Z,1009.25
2017-01-01T10:19:43.399Z,1009.32
2017-01-01T10:20:43.402Z,1009.27
2017-01-01T10:21:43.315Z,1009.29
2017-01-01T10:22:44.024Z,1009.29
2017-01-01T10:23:43.488Z,1009.29
2017-01-01T10:24:43.442Z,1009.31
2017-01-01T10:25:44.024Z,1009.31
2017-01-01T10:26:43.251Z,1009.32
2017-01-01T10:27:43.808Z,1009.27
2017-01-01T10:28:43.252Z,1009.28
2017-01-01T10:29:43.246Z,1009.26
2017-01-01T10:30:43.623Z,1009.27
2017-01-01T10:31:43.182Z,1009.28
2017-01-01T10:32:43.624Z,1009.28
2017-01-01T10:33:43.146Z,1009.26
2017-01-01T10:34:43.705Z,1009.25
2017-01-01T10:35:43.970Z,1009.23
2017-01-01T10:36:43.975Z,1009.3
2017-01-01T10:37:43.475Z,1009.28
2017-01-01T10:38:43.865Z,1009.23
2017-01-01T10:39:43.536Z,1009.21
2017-01-01T10:40:43.574Z,1009.17
2017-01-01T10:41:43.792Z,1009.16
2017-01-01T10:42:43.475Z,1009.13
2017-01-01T10:43:43.648Z,1009.13
2017-01-01T10:44:43.720Z,1009.07
2017-01-01T10:45:43.485Z,1009.04
2017-01-01T10:46:43.743Z,1008.94
2017-01-01T10:47:43.828Z,1008.97
2017-01-01T10:48:44.255Z,1008.99
2017-01-01T10:49:43.626Z,1008.93
2017-01-01T10:50:44.627Z,1008.93
2017-01-01T10:51:43.604Z,1008.86
2017-01-01T10:52:43.625Z,1008.85
2017-01-01T10:53:43.728Z,1008.87
2017-01-01T10:54:44.122Z,1008.81
2017-01-01T10:55:43.943Z,1008.76
2017-01-01T10:56:43.978Z,1008.78
2017-01-01T10:57:43.913Z,1008.7
2017-01-01T10:58:44.546Z,1008.71
2017-01-01T10:59:44.337Z,1008.71
2017-01-01T11:00:43.666Z,1008.67
2017-01-01T11:01:43.733Z,1008.65
2017-01-01T11:02:44.082Z,1008.7
2017-01-01T11:03:43.846Z,1008.7
2017-01-01T11:04:43.924Z,1008.7
2017-01-01T11:05:43.937Z,1008.68
2017-01-01T11:06:43.796Z,1008.68
2017-01-01T11:07:43.676Z,1008.71
2017-01-01T11:08:43.975Z,1008.72
2017-01-01T11:09:43.761Z,1008.7
2017-01-01T11:10:43.781Z,1008.7
2017-01-01T11:11:43.897Z,1008.65
2017-01-01T11:12:43.906Z,1008.7
2017-01-01T11:13:43.655Z,1008.72
2017-01-01T11:14:43.781Z,1008.73
2017-01-01T11:15:44.161Z,1008.7
2017-01-01T11:16:43.820Z,1008.76
2017-01-01T11:17:43.853Z,1008.7
2017-01-01T11:18:43.793Z,1008.7
2017-01-01T11:19:43.794Z,1008.67
2017-01-01T11:20:43.862Z,1008.7
2017-01-01T11:21:43.758Z,1008.66
2017-01-01T11:22:44.001Z,1008.59
2017-01-01T11:23:43.838Z,1008.53
2017-01-01T11:24:43.776Z,1008.49
2017-01-01T11:25:43.943Z,1008.46
2017-01-01T11:26:44.107Z,1008.42
2017-01-01T11:27:43.749Z,1008.4
2017-01-01T11:28:43.892Z,1008.42
2017-01-01T11:29:44.151Z,1008.4
2017-01-01T11:30:44.230Z,1008.45
2017-01-01T11:31:43.892Z,1008.38
2017-01-01T11:32:43.932Z,1008.34
2017-01-01T11:33:44.087Z,1008.25
2017-01-01T11:34:44.160Z,1008.31
2017-01-01T11:35:44.155Z,1008.29
2017-01-01T11:36:44.135Z,1008.29
2017-01-01T11:37:44.022Z,1008.24
2017-01-01T11:38:44.074Z,1008.26
2017-01-01T11:39:44.047Z,1008.24
2017-01-01T11:40:44.063Z,1008.23
2017-01-01T11:41:44.370Z,1008.21
2017-01-01T11:42:44.166Z,1008.21
2017-01-01T11:43:44.106Z,1008.23
2017-01-01T11:44:44.196Z,1008.25
2017-01-01T11:45:44.123Z,1008.22
2017-01-01T11:46:44.510Z,1008.24
2017-01-01T11:47:44.183Z,1008.24
2017-01-01T11:48:44.220Z,1008.18
2017-01-01T11:49:44.230Z,1008.16
2017-01-01T11:50:44.148Z,1008.16
2017-01-01T11:51:44.040Z,1008.11
2017-01-01T11:52:44.160Z,1008.14
2017-01-01T11:53:44.118Z,1008.14
2017-01-01T11:54:44.259Z,1008.1
2017-01-01T11:55:44.417Z,1008.1
2017-01-01T11:56:44.121Z,1008.08
2017-01-01T11:57:44.216Z,1008.06
2017-01-01T11:58:44.405Z,1007.93
2017-01-01T11:59:44.145Z,1007.96
2017-01-01T12:00:44.261Z,1007.98
2017-01-01T12:01:44.294Z,1007.94
2017-01-01T12:02:44.229Z,1007.93
2017-01-01T12:03:44.345Z,1007.88
2017-01-01T12:04:44.420Z,1007.89
2017-01-01T12:05:44.547Z,1007.88
2017-01-01T12:06:44.228Z,1007.83
2017-01-01T12:07:44.772Z,1007.79
2017-01-01T12:08:44.553Z,1007.76
2017-01-01T12:09:44.308Z,1007.72
2017-01-01T12:10:44.367Z,1007.75